Terminal Aerodrome Forecast
Issued by NWS

Home | Current Version | Previous Version | Text Only | Print | Product List | Glossary On
Versions: 1 2 3 4 5 6 7 8 9 10 11 12 13
000
FTUS43 KJKL 232222 AAA
TAFSJS
TAF AMD
KSJS 232222Z 2322/2418 17006KT P6SM VCSH OVC050
     FM232300 VRB05KT 4SM -SHRA BR BKN015 OVC030
     FM240000 23009KT P6SM OVC015
     FM240300 23009KT P6SM VCSH OVC015
     FM240800 22006KT P6SM SCT050
     FM241100 VRB05KT P6SM VCSH SCT045=

USA.gov is the U.S. government's official web portal to all federal, state and local government web resources and services.